Time;durP1;ratioP1;P1;durP2;ratioP2;P2;SDS_P1;SDS_P2;PMS_P1;PMS_P2;Temp;Humidity;BMP_temperature;BMP_pressure;BME280_temperature;BME280_humidity;BME280_pressure;Samples;Min_cycle;Max_cycle;Signal;HPM_P1;HPM_P2
2023/07/26 00:01:17;;;;;;;5.93;2.53;;;17.20;99.90;;;;;;4037292;29;20217;-86
2023/07/26 00:03:17;;;;;;;3.75;1.80;;;17.10;99.90;;;;;;4052537;29;20670;-86
2023/07/26 00:05:18;;;;;;;6.43;1.80;;;17.10;99.90;;;;;;4052751;29;20188;-85
2023/07/26 00:07:19;;;;;;;12.52;2.30;;;17.10;99.90;;;;;;4036944;29;20276;-86
2023/07/26 00:09:20;;;;;;;4.18;2.03;;;17.00;99.90;;;;;;4052736;29;20672;-86
2023/07/26 00:11:20;;;;;;;8.18;2.70;;;16.90;99.90;;;;;;4052830;29;20646;-86
2023/07/26 00:13:21;;;;;;;6.47;2.40;;;16.80;99.90;;;;;;4037296;29;20178;-86
2023/07/26 00:15:22;;;;;;;6.13;2.08;;;16.90;99.90;;;;;;4052639;29;20189;-86
2023/07/26 00:17:22;;;;;;;5.45;2.33;;;16.80;99.90;;;;;;4052501;29;20185;-86
2023/07/26 00:19:23;;;;;;;6.63;2.33;;;16.80;99.90;;;;;;4052354;29;20271;-86
2023/07/26 00:21:24;;;;;;;7.82;2.15;;;16.70;99.90;;;;;;4052650;29;20184;-86
2023/07/26 00:23:25;;;;;;;3.80;2.17;;;16.70;99.90;;;;;;4036947;29;20194;-86
2023/07/26 00:25:25;;;;;;;5.35;2.30;;;16.60;99.90;;;;;;4052578;29;20176;-85
2023/07/26 00:27:26;;;;;;;5.18;2.22;;;16.70;99.90;;;;;;4052358;29;20207;-85
2023/07/26 00:29:27;;;;;;;10.70;2.45;;;16.70;99.90;;;;;;4036900;29;20245;-86
2023/07/26 00:31:28;;;;;;;5.20;2.40;;;16.80;99.90;;;;;;4069148;29;20188;-86
2023/07/26 00:33:28;;;;;;;6.22;2.20;;;16.80;99.90;;;;;;4036862;29;20181;-86
2023/07/26 00:35:35;;;;;;;7.68;2.60;;;16.90;99.90;;;;;;4069291;29;20192;-86
2023/07/26 00:37:36;;;;;;;7.97;2.83;;;17.00;99.90;;;;;;4052395;29;20263;-86
2023/07/26 00:39:36;;;;;;;5.13;2.42;;;17.00;99.90;;;;;;4068477;29;20243;-86
2023/07/26 00:41:37;;;;;;;8.73;2.70;;;17.00;99.90;;;;;;4051642;29;20220;-86
2023/07/26 00:43:38;;;;;;;9.90;2.70;;;16.90;99.90;;;;;;4068673;29;20176;-86
2023/07/26 00:45:40;;;;;;;9.27;2.95;;;17.00;99.90;;;;;;4068574;29;20175;-86
2023/07/26 00:47:41;;;;;;;5.55;2.50;;;17.00;99.90;;;;;;4051932;29;20199;-86
2023/07/26 00:49:43;;;;;;;7.28;2.80;;;16.80;99.90;;;;;;4051450;29;20714;-86
2023/07/26 00:51:43;;;;;;;7.05;3.15;;;16.80;99.90;;;;;;4051440;29;20196;-85
2023/07/26 00:53:45;;;;;;;6.40;2.90;;;16.80;99.90;;;;;;4051717;29;20196;-86
2023/07/26 00:55:46;;;;;;;7.50;2.80;;;16.80;99.90;;;;;;4051724;29;20220;-86
2023/07/26 00:57:48;;;;;;;8.05;3.28;;;16.70;99.90;;;;;;4068335;29;20206;-86
2023/07/26 00:59:49;;;;;;;5.97;3.08;;;16.60;99.90;;;;;;4068191;29;20243;-86
2023/07/26 01:01:50;;;;;;;8.02;3.10;;;16.70;99.90;;;;;;4036073;29;20207;-86
2023/07/26 01:03:52;;;;;;;6.22;3.33;;;16.70;99.90;;;;;;4051468;29;20188;-86
2023/07/26 01:06:22;;;;;;;11.10;3.22;;;16.80;99.90;;;;;;4051365;29;20268;-85
2023/07/26 01:08:50;;;;;;;8.82;3.05;;;16.70;99.90;;;;;;4051566;29;20252;-86
2023/07/26 01:11:01;;;;;;;8.98;3.53;;;16.70;99.90;;;;;;4051428;29;20212;-85
2023/07/26 01:13:18;;;;;;;10.40;3.15;;;16.80;99.90;;;;;;4068487;29;20670;-86
2023/07/26 01:15:26;;;;;;;10.38;3.67;;;16.80;99.90;;;;;;4067933;29;20625;-86
2023/07/26 01:17:26;;;;;;;9.75;3.35;;;16.70;99.90;;;;;;4067078;29;20211;-86
2023/07/26 01:19:28;;;;;;;13.02;4.13;;;16.60;99.90;;;;;;4050939;29;20229;-86
2023/07/26 01:21:31;;;;;;;9.75;3.90;;;16.60;99.90;;;;;;4036052;29;20224;-86
2023/07/26 01:23:32;;;;;;;11.13;3.58;;;16.60;99.90;;;;;;4035971;29;20184;-86
2023/07/26 01:25:33;;;;;;;15.90;3.60;;;16.60;99.90;;;;;;4066900;29;20260;-86
2023/07/26 01:27:35;;;;;;;10.45;3.38;;;16.50;99.90;;;;;;4035709;29;20185;-86
2023/07/26 01:29:36;;;;;;;9.13;3.70;;;16.40;99.90;;;;;;4051051;29;20249;-85
2023/07/26 01:31:38;;;;;;;9.52;3.38;;;16.40;99.90;;;;;;4036131;29;20178;-86
2023/07/26 01:33:40;;;;;;;7.25;3.60;;;16.40;99.90;;;;;;4035961;29;20201;-86
2023/07/26 01:35:40;;;;;;;11.23;3.35;;;16.50;99.90;;;;;;4035813;29;20291;-86
2023/07/26 01:37:41;;;;;;;12.93;3.92;;;16.50;99.90;;;;;;4010931;29;1196336;-85
2023/07/26 01:39:43;;;;;;;7.80;3.80;;;16.60;99.90;;;;;;4051558;29;20248;-86
2023/07/26 01:41:46;;;;;;;13.50;4.05;;;16.60;99.90;;;;;;4052083;29;20205;-86
2023/07/26 01:43:47;;;;;;;10.52;4.32;;;16.60;99.90;;;;;;4054310;29;20228;-86
2023/07/26 01:45:47;;;;;;;8.30;4.20;;;16.40;99.90;;;;;;4055012;29;20654;-86
2023/07/26 01:47:49;;;;;;;13.52;4.30;;;16.30;99.90;;;;;;4054870;29;20273;-86
2023/07/26 01:49:50;;;;;;;7.15;3.42;;;16.40;99.90;;;;;;4054656;29;20221;-86
2023/07/26 01:51:50;;;;;;;9.57;3.95;;;16.50;99.90;;;;;;4054751;29;20195;-86
2023/07/26 01:53:51;;;;;;;8.57;4.18;;;16.40;99.90;;;;;;4054852;29;20663;-86
2023/07/26 01:55:52;;;;;;;6.13;3.63;;;16.50;99.90;;;;;;4054864;29;20188;-86
2023/07/26 01:57:53;;;;;;;10.27;3.67;;;16.40;99.90;;;;;;4054931;29;20181;-86
2023/07/26 01:59:53;;;;;;;8.93;3.90;;;16.50;99.90;;;;;;4038865;29;20221;-86
2023/07/26 02:01:54;;;;;;;14.02;4.22;;;16.80;99.90;;;;;;4054374;29;20185;-86
2023/07/26 02:03:55;;;;;;;9.32;4.30;;;16.70;99.90;;;;;;4054433;29;20216;-86
2023/07/26 02:05:56;;;;;;;10.30;4.05;;;16.70;99.90;;;;;;4054646;29;20181;-86
2023/07/26 02:07:56;;;;;;;11.00;3.63;;;16.60;99.90;;;;;;4054716;29;20181;-86
2023/07/26 02:09:57;;;;;;;10.32;4.03;;;16.60;99.90;;;;;;4038658;29;20217;-86
2023/07/26 02:11:58;;;;;;;9.10;4.15;;;16.50;99.90;;;;;;4054322;29;20642;-86
2023/07/26 02:13:58;;;;;;;11.80;4.72;;;16.40;99.90;;;;;;4054353;29;20703;-86
2023/07/26 02:15:59;;;;;;;8.77;4.15;;;16.30;99.90;;;;;;4038908;29;20177;-85
2023/07/26 02:18:00;;;;;;;10.80;3.92;;;16.30;99.90;;;;;;4054436;29;20185;-86
2023/07/26 02:20:04;;;;;;;11.20;4.05;;;16.50;99.90;;;;;;4053880;29;20228;-86
2023/07/26 02:22:05;;;;;;;11.65;4.28;;;16.40;99.90;;;;;;4054276;29;20185;-86
2023/07/26 02:24:06;;;;;;;11.43;4.10;;;16.40;99.90;;;;;;4038919;29;20189;-86
2023/07/26 02:26:07;;;;;;;8.00;4.00;;;16.50;99.90;;;;;;4054319;29;20193;-86
2023/07/26 02:28:07;;;;;;;10.63;3.92;;;16.40;99.90;;;;;;4053963;29;20726;-86
2023/07/26 02:30:08;;;;;;;9.20;4.43;;;16.50;99.90;;;;;;4053670;29;20643;-86
2023/07/26 02:32:09;;;;;;;16.92;4.18;;;16.40;99.90;;;;;;4038350;29;20190;-86
2023/07/26 02:34:10;;;;;;;12.73;4.00;;;16.50;99.90;;;;;;4054046;29;20185;-85
2023/07/26 02:36:14;;;;;;;12.80;4.35;;;16.50;99.90;;;;;;4038927;29;20307;-86
2023/07/26 02:38:15;;;;;;;11.13;4.03;;;16.50;99.90;;;;;;4054529;29;20215;-86
2023/07/26 02:40:16;;;;;;;9.30;4.45;;;16.40;99.90;;;;;;4038534;29;20259;-85
2023/07/26 02:42:16;;;;;;;8.05;4.05;;;16.50;99.90;;;;;;4038378;29;20190;-86
2023/07/26 02:44:17;;;;;;;9.73;4.28;;;16.40;99.90;;;;;;4053725;29;20184;-86
2023/07/26 02:46:18;;;;;;;10.18;4.57;;;16.40;99.90;;;;;;4054028;29;20738;-86
2023/07/26 02:48:19;;;;;;;15.30;4.45;;;16.40;99.90;;;;;;4038496;29;20646;-86
2023/07/26 02:50:19;;;;;;;16.38;4.60;;;16.30;99.90;;;;;;4054047;29;20189;-86
2023/07/26 02:52:20;;;;;;;13.27;4.78;;;16.40;99.90;;;;;;4053908;29;20180;-86
2023/07/26 02:54:21;;;;;;;8.63;4.45;;;16.40;99.90;;;;;;4052529;29;20779;-86
2023/07/26 02:56:22;;;;;;;9.40;4.10;;;16.20;99.90;;;;;;4053848;29;20176;-86
2023/07/26 02:58:22;;;;;;;11.00;4.40;;;16.10;99.90;;;;;;4038368;29;20225;-86
2023/07/26 03:00:23;;;;;;;11.93;4.80;;;16.10;99.90;;;;;;4053521;29;20228;-86
2023/07/26 03:02:24;;;;;;;10.45;4.40;;;15.90;99.90;;;;;;4053581;29;20185;-86
2023/07/26 03:04:24;;;;;;;10.23;4.90;;;15.90;99.90;;;;;;4053753;29;20256;-86
2023/07/26 03:06:26;;;;;;;14.77;5.15;;;15.80;99.90;;;;;;4053560;29;20670;-85
2023/07/26 03:08:27;;;;;;;8.15;4.32;;;15.60;99.90;;;;;;4038222;29;20177;-86
2023/07/26 03:10:28;;;;;;;14.55;5.05;;;15.60;99.90;;;;;;4053551;29;20196;-86
2023/07/26 03:12:28;;;;;;;14.02;4.60;;;15.50;99.90;;;;;;4038273;29;20189;-86
2023/07/26 03:14:29;;;;;;;12.50;5.15;;;15.70;99.90;;;;;;4053389;29;20181;-86
2023/07/26 03:16:30;;;;;;;18.10;5.28;;;15.80;99.90;;;;;;4037953;29;20550;-86
2023/07/26 03:18:31;;;;;;;16.73;5.50;;;15.70;99.90;;;;;;4053447;29;20193;-86
2023/07/26 03:20:32;;;;;;;9.77;5.13;;;15.80;99.90;;;;;;4038057;29;20217;-86
2023/07/26 03:22:34;;;;;;;10.68;4.90;;;15.80;99.90;;;;;;4053636;29;20211;-85
2023/07/26 03:24:34;;;;;;;16.92;5.55;;;15.90;99.90;;;;;;4037892;29;20209;-86
2023/07/26 03:26:35;;;;;;;12.75;5.40;;;16.00;99.90;;;;;;4053178;29;20211;-86
2023/07/26 03:28:38;;;;;;;17.90;5.80;;;15.90;99.90;;;;;;4037910;29;20241;-86
2023/07/26 03:30:39;;;;;;;13.75;5.32;;;15.80;99.90;;;;;;4037749;29;20190;-86
2023/07/26 03:32:39;;;;;;;13.10;5.45;;;15.60;99.90;;;;;;4053199;29;20693;-86
2023/07/26 03:34:40;;;;;;;22.48;5.35;;;15.70;99.90;;;;;;4037685;29;20711;-86
2023/07/26 03:36:41;;;;;;;15.70;5.30;;;15.70;99.90;;;;;;4053241;29;20209;-85
2023/07/26 03:38:42;;;;;;;10.77;4.88;;;15.50;99.90;;;;;;4053145;29;20224;-86
2023/07/26 03:40:42;;;;;;;16.15;5.20;;;15.50;99.90;;;;;;4052926;29;20216;-86
2023/07/26 03:42:43;;;;;;;16.83;5.55;;;15.50;99.90;;;;;;4037630;29;20237;-86
2023/07/26 03:44:43;;;;;;;12.75;5.32;;;15.50;99.90;;;;;;4037513;29;20189;-86
2023/07/26 03:46:44;;;;;;;16.17;5.15;;;15.50;99.90;;;;;;4052961;29;20666;-86
2023/07/26 03:48:45;;;;;;;17.13;5.45;;;15.40;99.90;;;;;;4052817;29;20201;-86
2023/07/26 03:50:46;;;;;;;17.77;5.50;;;15.40;99.90;;;;;;4053217;29;20185;-86
2023/07/26 03:52:47;;;;;;;16.42;5.97;;;15.60;99.90;;;;;;4037394;29;20666;-86
2023/07/26 03:54:48;;;;;;;13.35;5.60;;;15.50;99.90;;;;;;4037271;29;20193;-86
2023/07/26 03:56:48;;;;;;;9.93;5.68;;;15.60;99.90;;;;;;4068662;29;20173;-86
2023/07/26 03:58:49;;;;;;;17.25;5.40;;;15.40;99.90;;;;;;4052786;29;20264;-86
2023/07/26 04:00:50;;;;;;;14.73;5.60;;;15.40;99.90;;;;;;4052715;29;20216;-86
2023/07/26 04:02:51;;;;;;;12.00;5.75;;;15.40;99.90;;;;;;4037192;29;20707;-86
2023/07/26 04:04:51;;;;;;;14.48;6.45;;;15.40;99.90;;;;;;4069143;29;20709;-86
2023/07/26 04:06:52;;;;;;;16.17;5.82;;;15.30;99.90;;;;;;4068170;29;20570;-85
2023/07/26 04:08:55;;;;;;;18.10;6.05;;;15.30;99.90;;;;;;4052786;29;20208;-85
2023/07/26 04:10:55;;;;;;;17.25;5.78;;;15.30;99.90;;;;;;4052704;29;20197;-86
2023/07/26 04:12:56;;;;;;;17.75;6.43;;;15.40;99.90;;;;;;4052714;29;20662;-85
2023/07/26 04:14:57;;;;;;;14.10;6.15;;;15.40;99.90;;;;;;4052806;29;20192;-86
2023/07/26 04:16:58;;;;;;;18.23;6.63;;;15.40;99.90;;;;;;4037312;29;20186;-86
2023/07/26 04:18:58;;;;;;;20.05;6.40;;;15.40;99.90;;;;;;4036956;29;20217;-86
2023/07/26 04:20:59;;;;;;;16.17;6.35;;;15.40;99.90;;;;;;4052497;29;20181;-86
2023/07/26 04:23:00;;;;;;;14.02;6.22;;;15.30;99.90;;;;;;4036875;29;20189;-86
2023/07/26 04:25:00;;;;;;;16.17;6.15;;;15.20;99.90;;;;;;4052598;29;20181;-86
2023/07/26 04:27:01;;;;;;;14.80;6.85;;;15.30;99.90;;;;;;4069308;29;20176;-86
2023/07/26 04:29:02;;;;;;;21.08;6.72;;;15.30;99.90;;;;;;4036885;29;20217;-85
2023/07/26 04:31:03;;;;;;;19.00;6.38;;;15.30;99.90;;;;;;4052462;29;20195;-86
2023/07/26 04:33:03;;;;;;;16.05;6.72;;;15.30;99.90;;;;;;4052324;29;20275;-85
2023/07/26 04:35:04;;;;;;;21.05;6.68;;;15.30;99.90;;;;;;4037041;29;20186;-86
2023/07/26 04:37:05;;;;;;;15.93;6.72;;;15.20;99.90;;;;;;4052502;29;20578;-86
2023/07/26 04:39:06;;;;;;;17.88;6.10;;;15.30;99.90;;;;;;4052327;29;20272;-86
2023/07/26 04:41:07;;;;;;;23.08;7.25;;;15.30;99.90;;;;;;4052354;29;20181;-85
2023/07/26 04:43:08;;;;;;;20.90;6.65;;;15.30;99.90;;;;;;4052514;29;20181;-86
2023/07/26 04:45:09;;;;;;;18.83;6.45;;;15.30;99.90;;;;;;4068025;29;20316;-85
2023/07/26 04:47:09;;;;;;;14.57;6.82;;;15.30;99.90;;;;;;4052330;29;20185;-85
2023/07/26 04:49:10;;;;;;;21.50;6.68;;;15.30;99.90;;;;;;4052211;29;20393;-85
2023/07/26 04:51:11;;;;;;;14.35;6.55;;;15.30;99.90;;;;;;4052226;29;20213;-86
2023/07/26 04:53:12;;;;;;;19.15;6.18;;;15.20;99.90;;;;;;4052010;29;20183;-85
2023/07/26 04:55:12;;;;;;;15.38;6.22;;;15.20;99.90;;;;;;4036863;29;20197;-86
2023/07/26 04:57:13;;;;;;;26.92;6.70;;;15.30;99.90;;;;;;4067721;29;20176;-86
2023/07/26 04:59:15;;;;;;;18.92;6.43;;;15.30;99.90;;;;;;4052082;29;20693;-86
2023/07/26 05:01:16;;;;;;;21.88;6.20;;;15.40;99.90;;;;;;4052191;29;20189;-86
2023/07/26 05:03:16;;;;;;;17.50;7.05;;;15.60;99.90;;;;;;4052255;29;20185;-86
2023/07/26 05:05:17;;;;;;;21.63;6.55;;;15.60;99.90;;;;;;4052212;29;20185;-86
2023/07/26 05:07:18;;;;;;;12.30;6.22;;;15.70;99.90;;;;;;4052147;29;20180;-85
2023/07/26 05:09:18;;;;;;;17.10;6.15;;;15.70;99.90;;;;;;4036459;29;20189;-85
2023/07/26 05:11:20;;;;;;;15.77;6.40;;;15.70;99.90;;;;;;4052309;29;20276;-85
2023/07/26 05:13:23;;;;;;;17.10;6.88;;;15.60;99.90;;;;;;4052338;29;20188;-85
2023/07/26 05:15:23;;;;;;;13.40;6.63;;;15.70;99.90;;;;;;4036293;29;20193;-85
2023/07/26 05:17:24;;;;;;;30.92;6.72;;;15.80;99.90;;;;;;4052311;29;20651;-85
2023/07/26 05:19:25;;;;;;;22.23;6.30;;;15.80;99.90;;;;;;4054922;29;20232;-85
2023/07/26 05:21:26;;;;;;;14.88;5.90;;;15.80;99.90;;;;;;4055344;29;20246;-84
2023/07/26 05:23:26;;;;;;;18.35;6.13;;;15.60;99.90;;;;;;4055021;29;20295;-85
2023/07/26 05:25:27;;;;;;;18.58;5.85;;;15.70;99.90;;;;;;4055081;29;20176;-85
2023/07/26 05:27:28;;;;;;;13.98;5.28;;;15.70;99.90;;;;;;4054823;29;20203;-85
2023/07/26 05:29:28;;;;;;;25.42;5.85;;;15.80;99.90;;;;;;4054634;29;20193;-85
2023/07/26 05:31:29;;;;;;;18.70;5.43;;;16.00;99.90;;;;;;4054967;29;20682;-85
2023/07/26 05:33:30;;;;;;;13.82;5.55;;;16.20;99.90;;;;;;4039862;29;20188;-92
2023/07/26 05:35:31;;;;;;;13.63;5.85;;;16.30;99.90;;;;;;4055459;29;20189;-93
2023/07/26 05:37:34;;;;;;;14.05;5.80;;;16.30;99.90;;;;;;4055432;29;20657;-92
2023/07/26 05:39:35;;;;;;;17.45;4.95;;;16.30;99.90;;;;;;4055731;29;20224;-93
2023/07/26 05:41:36;;;;;;;12.25;5.38;;;16.30;99.90;;;;;;4040331;29;20217;-92
2023/07/26 05:43:36;;;;;;;12.60;5.10;;;16.40;99.90;;;;;;4055569;29;20271;-92
2023/07/26 05:45:40;;;;;;;19.58;5.57;;;16.50;99.90;;;;;;4039919;29;20186;-93
2023/07/26 05:47:42;;;;;;;16.00;5.63;;;16.40;99.90;;;;;;4040204;29;20213;-92
2023/07/26 05:49:43;;;;;;;18.80;5.65;;;16.50;99.90;;;;;;4055251;29;20207;-92
2023/07/26 05:51:44;;;;;;;16.50;5.28;;;16.70;99.90;;;;;;4055202;29;20199;-92
2023/07/26 05:53:45;;;;;;;18.42;5.30;;;16.70;99.90;;;;;;4055334;29;20543;-92
2023/07/26 05:55:46;;;;;;;23.98;5.53;;;16.70;99.90;;;;;;4055130;29;20670;-92
2023/07/26 05:57:47;;;;;;;15.25;5.63;;;16.60;99.90;;;;;;4055033;29;20173;-92
2023/07/26 05:59:47;;;;;;;17.25;5.70;;;16.60;99.90;;;;;;4039438;29;20267;-93
2023/07/26 06:01:48;;;;;;;18.33;5.47;;;16.80;99.90;;;;;;4055126;29;20185;-93
2023/07/26 06:03:50;;;;;;;17.40;5.70;;;16.90;99.90;;;;;;4039921;29;20185;-93
2023/07/26 06:05:51;;;;;;;15.13;5.40;;;16.90;99.90;;;;;;4070579;29;20296;-92
2023/07/26 06:07:52;;;;;;;14.15;5.60;;;16.90;99.90;;;;;;4039906;29;20181;-92
2023/07/26 06:09:53;;;;;;;18.92;6.55;;;17.00;99.90;;;;;;4055453;29;20200;-92
2023/07/26 06:11:53;;;;;;;15.07;5.25;;;17.00;99.90;;;;;;4054847;29;20666;-92
2023/07/26 06:13:54;;;;;;;18.23;5.78;;;16.90;99.90;;;;;;4055490;29;20184;-93
2023/07/26 06:15:55;;;;;;;18.40;4.93;;;17.00;99.90;;;;;;4040025;29;20655;-92
2023/07/26 06:17:56;;;;;;;14.27;4.75;;;17.00;99.90;;;;;;4071164;29;20216;-92
2023/07/26 06:19:57;;;;;;;12.43;4.60;;;16.80;99.90;;;;;;4056155;29;20236;-96
2023/07/26 06:21:58;;;;;;;12.45;4.70;;;16.90;99.90;;;;;;4054884;29;20200;-92
2023/07/26 06:23:58;;;;;;;17.35;4.80;;;17.10;99.90;;;;;;4054611;29;20241;-92
2023/07/26 06:25:59;;;;;;;14.65;4.53;;;17.20;99.90;;;;;;4039164;29;20178;-92
2023/07/26 06:28:00;;;;;;;18.55;5.20;;;17.50;99.90;;;;;;4056613;29;20192;-91
2023/07/26 06:30:01;;;;;;;10.30;4.50;;;18.00;99.90;;;;;;4054207;29;20227;-92
2023/07/26 06:32:01;;;;;;;22.33;5.20;;;17.80;99.90;;;;;;4054667;29;20204;-93
2023/07/26 06:34:02;;;;;;;9.90;4.50;;;18.00;99.90;;;;;;4054389;29;20271;-92
2023/07/26 06:36:03;;;;;;;17.80;4.10;;;18.20;99.90;;;;;;4042038;29;20174;-93
2023/07/26 06:38:04;;;;;;;10.32;4.28;;;18.40;99.90;;;;;;4055333;29;20249;-95
2023/07/26 06:40:05;;;;;;;11.32;4.15;;;18.80;99.90;;;;;;4054482;29;20304;-92
2023/07/26 06:42:07;;;;;;;14.93;4.30;;;18.90;99.90;;;;;;4054839;29;20185;-93
2023/07/26 06:44:16;;;;;;;13.05;4.35;;;18.70;99.90;;;;;;4054517;29;20189;-92
2023/07/26 06:46:17;;;;;;;11.30;4.35;;;18.70;99.90;;;;;;4054314;29;20205;-92
2023/07/26 06:48:19;;;;;;;14.45;4.43;;;19.00;99.90;;;;;;4055285;29;20188;-91
2023/07/26 06:50:20;;;;;;;8.55;4.18;;;19.30;99.90;;;;;;4039473;29;20189;-92
2023/07/26 06:52:20;;;;;;;12.27;3.78;;;19.40;99.90;;;;;;4054436;29;20196;-92
2023/07/26 06:54:21;;;;;;;8.85;3.63;;;19.60;99.90;;;;;;4038720;29;20182;-93
2023/07/26 06:56:22;;;;;;;9.15;3.88;;;19.80;99.90;;;;;;4054510;29;20706;-92
2023/07/26 06:58:23;;;;;;;11.75;4.18;;;19.90;99.90;;;;;;4040058;29;20178;-92
2023/07/26 07:00:23;;;;;;;15.23;4.57;;;19.50;99.90;;;;;;4053767;29;20252;-91
2023/07/26 07:02:24;;;;;;;10.38;3.88;;;19.60;99.90;;;;;;4054398;29;20180;-91
2023/07/26 07:04:25;;;;;;;10.82;3.78;;;19.60;99.90;;;;;;4054165;29;20200;-91
2023/07/26 07:06:25;;;;;;;12.52;3.70;;;19.80;99.90;;;;;;4039004;29;20552;-93
2023/07/26 07:08:27;;;;;;;9.88;3.63;;;20.00;99.90;;;;;;4054328;29;20237;-93
2023/07/26 07:10:27;;;;;;;10.65;4.75;;;20.30;99.90;;;;;;4054266;29;20193;-92
2023/07/26 07:12:28;;;;;;;10.30;3.67;;;20.30;99.90;;;;;;4054157;29;20252;-92
2023/07/26 07:14:29;;;;;;;12.55;3.60;;;20.60;99.90;;;;;;4053973;29;20222;-92
2023/07/26 07:16:29;;;;;;;9.10;3.50;;;20.50;99.90;;;;;;4038915;29;20377;-91
2023/07/26 07:18:31;;;;;;;11.43;3.67;;;20.70;99.90;;;;;;4069281;29;20184;-91
2023/07/26 07:20:32;;;;;;;9.32;3.63;;;20.80;99.90;;;;;;4053714;29;20229;-91
2023/07/26 07:22:33;;;;;;;8.23;3.55;;;20.70;99.90;;;;;;4053869;29;20240;-93
2023/07/26 07:24:34;;;;;;;10.00;3.58;;;20.70;99.90;;;;;;4038417;29;20555;-93
2023/07/26 07:26:35;;;;;;;9.75;3.55;;;20.70;99.90;;;;;;4054013;29;20177;-92
2023/07/26 07:28:36;;;;;;;8.32;3.35;;;21.10;99.90;;;;;;4053838;29;20212;-92
2023/07/26 07:30:37;;;;;;;10.85;3.50;;;21.60;99.90;;;;;;4053809;29;20189;-92
2023/07/26 07:32:37;;;;;;;7.53;3.40;;;22.40;99.90;;;;;;4041056;29;20272;-92
2023/07/26 07:34:38;;;;;;;8.02;3.50;;;23.50;99.90;;;;;;4055158;29;20297;-92
2023/07/26 07:36:39;;;;;;;7.65;2.95;;;24.20;99.90;;;;;;4038497;29;20189;-93
2023/07/26 07:38:40;;;;;;;7.05;3.15;;;25.40;99.90;;;;;;4053717;29;20220;-91
2023/07/26 07:40:41;;;;;;;6.97;3.08;;;26.40;99.90;;;;;;4038473;29;20681;-90
2023/07/26 07:42:42;;;;;;;8.05;2.80;;;27.20;99.90;;;;;;4053498;29;20193;-91
2023/07/26 07:44:42;;;;;;;10.35;3.85;;;27.20;99.90;;;;;;4053656;29;20789;-90
2023/07/26 07:46:44;;;;;;;6.65;3.30;;;27.20;99.90;;;;;;4053854;29;20181;-92
2023/07/26 07:48:45;;;;;;;7.13;3.25;;;27.30;99.90;;;;;;4038884;29;20201;-91
2023/07/26 07:50:52;;;;;;;9.57;3.63;;;26.30;99.90;;;;;;4053487;29;20180;-91
2023/07/26 07:52:52;;;;;;;8.55;3.63;;;26.70;99.90;;;;;;4039109;29;20648;-91
2023/07/26 07:54:53;;;;;;;10.25;3.53;;;27.30;99.90;;;;;;4053332;29;20264;-90
2023/07/26 07:56:54;;;;;;;8.90;3.63;;;28.30;99.90;;;;;;4038862;29;20189;-91
2023/07/26 07:58:55;;;;;;;9.30;3.00;;;29.10;99.90;;;;;;4053279;29;20200;-91
2023/07/26 08:00:58;;;;;;;10.45;3.40;;;29.00;99.90;;;;;;4053284;29;20224;-92
2023/07/26 08:02:58;;;;;;;7.55;3.17;;;29.70;99.90;;;;;;4038095;29;20657;-91
2023/07/26 08:04:59;;;;;;;6.07;2.88;;;30.60;99.90;;;;;;4053524;29;20213;-91
2023/07/26 08:07:00;;;;;;;6.28;3.33;;;29.90;99.90;;;;;;4053383;29;20286;-91
2023/07/26 08:09:01;;;;;;;13.75;3.53;;;30.10;99.90;;;;;;4053233;29;20304;-91
2023/07/26 08:11:04;;;;;;;7.05;3.22;;;30.50;99.90;;;;;;4037831;29;20173;-92
2023/07/26 08:13:05;;;;;;;6.00;3.30;;;30.80;99.90;;;;;;4038046;29;20281;-91
2023/07/26 08:15:06;;;;;;;10.43;3.35;;;31.10;99.90;;;;;;4052938;29;20188;-91
2023/07/26 08:17:07;;;;;;;5.97;3.17;;;30.10;99.90;;;;;;4037761;29;20226;-90
2023/07/26 08:19:08;;;;;;;7.47;3.17;;;30.10;99.90;;;;;;4053213;29;20547;-91
2023/07/26 08:21:11;;;;;;;6.75;3.17;;;29.50;99.90;;;;;;4053380;29;20189;-90
2023/07/26 08:23:12;;;;;;;8.13;3.35;;;29.10;99.90;;;;;;4037804;29;20225;-91
2023/07/26 08:25:13;;;;;;;6.30;3.10;;;29.60;99.90;;;;;;4053250;29;20192;-92
2023/07/26 08:27:14;;;;;;;10.77;2.92;;;30.20;99.90;;;;;;4037645;29;20237;-90
2023/07/26 08:29:15;;;;;;;7.30;4.00;;;30.70;99.90;;;;;;4053072;29;20212;-90
2023/07/26 08:31:16;;;;;;;8.45;3.60;;;31.40;99.90;;;;;;4037578;29;20217;-91
2023/07/26 08:33:16;;;;;;;5.65;3.10;;;31.60;99.90;;;;;;4037606;29;20217;-91
2023/07/26 08:35:17;;;;;;;5.75;3.38;;;30.50;99.90;;;;;;4037638;29;20181;-93
2023/07/26 08:37:18;;;;;;;9.77;3.67;;;30.40;99.90;;;;;;4037900;29;20193;-91
2023/07/26 08:39:19;;;;;;;6.15;3.17;;;30.60;99.90;;;;;;4052995;29;20588;-90
2023/07/26 08:41:20;;;;;;;6.30;3.17;;;29.60;99.90;;;;;;4052722;29;20193;-91
2023/07/26 08:43:24;;;;;;;8.02;3.05;;;29.20;99.90;;;;;;4037465;29;20643;-91
2023/07/26 08:45:26;;;;;;;6.90;3.00;;;29.50;99.90;;;;;;4052749;29;20181;-91
2023/07/26 08:47:28;;;;;;;5.88;3.15;;;29.40;99.90;;;;;;4037675;29;20305;-91
2023/07/26 08:49:29;;;;;;;5.70;3.13;;;29.60;99.90;;;;;;4068813;29;20200;-90
2023/07/26 08:51:30;;;;;;;7.95;3.13;;;29.10;99.90;;;;;;4053128;29;20272;-91
2023/07/26 08:53:33;;;;;;;5.38;2.70;;;28.40;99.90;;;;;;4056112;29;20192;-92
2023/07/26 08:55:35;;;;;;;13.90;4.05;;;28.20;99.90;;;;;;4040898;29;20253;-91
2023/07/26 08:57:36;;;;;;;5.03;2.80;;;27.80;99.90;;;;;;4040635;29;20193;-91
2023/07/26 08:59:37;;;;;;;4.43;2.78;;;28.10;99.90;;;;;;4055754;29;20714;-91
2023/07/26 09:01:39;;;;;;;7.20;3.13;;;28.80;99.90;;;;;;4056266;29;20244;-90
2023/07/26 09:03:41;;;;;;;4.93;3.17;;;29.10;99.90;;;;;;4056301;29;20224;-91
2023/07/26 09:05:42;;;;;;;9.75;3.30;;;29.50;99.90;;;;;;4056211;29;20193;-91
2023/07/26 09:07:44;;;;;;;8.35;3.20;;;30.00;99.90;;;;;;4056267;29;20183;-91
2023/07/26 09:09:44;;;;;;;7.13;3.42;;;30.30;99.90;;;;;;4055735;29;20235;-90
2023/07/26 09:11:49;;;;;;;4.47;2.65;;;30.10;99.90;;;;;;4055821;29;20187;-90
2023/07/26 09:13:57;;;;;;;6.32;2.60;;;29.50;99.90;;;;;;4040388;29;20658;-91
2023/07/26 09:16:01;;;;;;;5.38;2.50;;;30.20;99.90;;;;;;4056807;29;20192;-90
2023/07/26 09:18:03;;;;;;;5.55;2.60;;;30.10;99.90;;;;;;4055910;29;20211;-92
2023/07/26 09:20:19;;;;;;;3.65;2.33;;;30.10;99.90;;;;;;4055523;29;20257;-91
2023/07/26 09:22:21;;;;;;;5.40;2.90;;;30.50;99.90;;;;;;4042089;29;20196;-90
2023/07/26 09:24:34;;;;;;;4.93;2.70;;;30.20;99.90;;;;;;4040274;29;20178;-90
2023/07/26 09:26:35;;;;;;;5.40;3.13;;;30.20;99.90;;;;;;4040261;29;20194;-90
2023/07/26 09:28:36;;;;;;;6.18;3.13;;;30.40;99.90;;;;;;4039998;29;20218;-91
2023/07/26 09:30:38;;;;;;;4.70;2.67;;;30.10;99.90;;;;;;4040045;29;20264;-92
2023/07/26 09:32:41;;;;;;;6.32;3.20;;;28.70;99.90;;;;;;4040764;29;20178;-93
2023/07/26 09:34:44;;;;;;;6.20;3.20;;;28.00;99.90;;;;;;4055672;29;20276;-90
2023/07/26 09:36:51;;;;;;;6.22;2.65;;;27.70;99.90;;;;;;4055627;29;20176;-92
2023/07/26 09:38:52;;;;;;;3.67;2.65;;;27.30;99.90;;;;;;4039894;29;20653;-91
2023/07/26 09:40:53;;;;;;;6.03;2.47;;;26.70;99.90;;;;;;4055440;29;20216;-91
2023/07/26 09:42:54;;;;;;;7.05;2.47;;;27.50;99.90;;;;;;4039754;29;20669;-91
2023/07/26 09:44:58;;;;;;;6.13;2.90;;;27.40;99.90;;;;;;4055332;29;20189;-92
2023/07/26 09:46:59;;;;;;;6.05;2.70;;;26.70;99.90;;;;;;4039911;29;20273;-92
2023/07/26 09:49:03;;;;;;;3.70;2.78;;;26.30;99.90;;;;;;4039711;29;20206;-91
2023/07/26 09:51:05;;;;;;;4.50;2.13;;;26.30;99.90;;;;;;4039626;29;20273;-91
2023/07/26 09:53:06;;;;;;;7.18;2.85;;;26.10;99.90;;;;;;4056752;29;20559;-90
2023/07/26 09:55:08;;;;;;;5.50;3.00;;;26.30;99.90;;;;;;4070928;29;20212;-92
2023/07/26 09:57:10;;;;;;;6.63;2.38;;;27.10;99.90;;;;;;4055158;29;20777;-91
2023/07/26 09:59:11;;;;;;;3.67;2.50;;;27.50;99.90;;;;;;4039602;29;20668;-90
2023/07/26 10:01:14;;;;;;;6.30;2.20;;;28.30;99.90;;;;;;4040114;29;20194;-91
2023/07/26 10:03:21;;;;;;;3.75;2.28;;;28.50;99.90;;;;;;4054568;29;20173;-90
2023/07/26 10:05:24;;;;;;;4.63;2.25;;;28.20;99.90;;;;;;4039708;29;20188;-90
2023/07/26 10:07:26;;;;;;;3.65;2.30;;;27.90;99.90;;;;;;4070762;29;20179;-90
2023/07/26 10:09:32;;;;;;;3.67;2.08;;;28.00;99.90;;;;;;4054875;29;20247;-90
2023/07/26 10:11:33;;;;;;;5.97;2.40;;;27.50;99.90;;;;;;4039603;29;20181;-92
2023/07/26 10:13:34;;;;;;;6.18;2.47;;;28.50;99.90;;;;;;4055013;29;20177;-91
2023/07/26 10:15:36;;;;;;;4.53;2.30;;;29.20;99.90;;;;;;4039448;29;20181;-91
2023/07/26 10:17:38;;;;;;;5.22;2.60;;;28.80;99.90;;;;;;4044950;29;20194;-91
2023/07/26 10:19:41;;;;;;;6.30;2.90;;;28.40;99.90;;;;;;4054699;29;20213;-92
2023/07/26 10:21:43;;;;;;;4.03;2.70;;;28.50;99.90;;;;;;4056176;29;20583;-91
2023/07/26 10:23:46;;;;;;;4.90;2.35;;;28.40;99.90;;;;;;4039321;29;20178;-90
2023/07/26 10:25:48;;;;;;;3.25;2.40;;;28.10;99.90;;;;;;4055101;29;20193;-91
2023/07/26 10:27:50;;;;;;;6.28;2.60;;;27.40;99.90;;;;;;4039402;29;20578;-91